createdAt,value
2023-03-06T00:01:55.511Z,-0.65
2023-03-06T00:04:22.119Z,-0.64
2023-03-06T00:06:48.759Z,-0.62
2023-03-06T00:09:15.265Z,-0.74
2023-03-06T00:11:41.785Z,-0.74
2023-03-06T00:14:08.271Z,-0.66
2023-03-06T00:16:34.943Z,-0.74
2023-03-06T00:19:01.492Z,-0.79
2023-03-06T00:21:28.028Z,-0.76
2023-03-06T00:23:54.726Z,-0.75
2023-03-06T00:26:21.286Z,-0.74
2023-03-06T00:28:47.834Z,-0.83
2023-03-06T00:31:14.452Z,-0.84
2023-03-06T00:33:41.030Z,-0.75
2023-03-06T00:36:07.915Z,-0.85
2023-03-06T00:38:35.610Z,-0.96
2023-03-06T00:41:10.565Z,-1.01
2023-03-06T00:43:37.525Z,-0.94
2023-03-06T00:46:04.247Z,-0.90
2023-03-06T00:48:30.951Z,-0.96
2023-03-06T00:50:57.528Z,-1.03
2023-03-06T00:53:25.680Z,-1.06
2023-03-06T00:55:52.258Z,-0.99
2023-03-06T00:58:19.006Z,-0.96
2023-03-06T01:00:45.575Z,-0.95
2023-03-06T01:03:12.225Z,-1.05
2023-03-06T01:05:39.339Z,-0.97
2023-03-06T01:08:06.452Z,-0.95
2023-03-06T01:10:33.669Z,-0.99
2023-03-06T01:13:00.227Z,-1.00
2023-03-06T01:15:26.765Z,-0.93
2023-03-06T01:17:54.543Z,-0.92
2023-03-06T01:20:22.385Z,-0.94
2023-03-06T01:22:48.933Z,-0.91
2023-03-06T01:25:15.548Z,-0.86
2023-03-06T01:27:42.138Z,-0.91
2023-03-06T01:30:09.470Z,-0.92
2023-03-06T01:32:36.006Z,-0.86
2023-03-06T01:35:03.870Z,-0.83
2023-03-06T01:37:30.457Z,-0.81
2023-03-06T01:39:57.024Z,-0.87
2023-03-06T01:42:23.717Z,-0.88
2023-03-06T01:45:05.742Z,-0.88
2023-03-06T01:47:32.295Z,-0.90
2023-03-06T01:50:01.375Z,-0.94
2023-03-06T01:52:33.502Z,-0.90
2023-03-06T01:55:08.594Z,-0.85
2023-03-06T01:57:47.219Z,-0.88
2023-03-06T02:00:18.731Z,-0.87
2023-03-06T02:02:50.227Z,-0.89
2023-03-06T02:05:17.039Z,-0.89
2023-03-06T02:07:45.402Z,-0.84
2023-03-06T02:10:13.288Z,-0.83
2023-03-06T02:12:43.710Z,-0.84
2023-03-06T02:15:13.029Z,-0.83
2023-03-06T02:17:41.689Z,-0.84
2023-03-06T02:20:08.214Z,-0.89
2023-03-06T02:22:43.514Z,-0.91
2023-03-06T02:25:30.381Z,-0.85
2023-03-06T02:27:56.963Z,-0.80
2023-03-06T02:30:26.747Z,-0.84
2023-03-06T02:32:53.512Z,-0.95
2023-03-06T02:35:25.447Z,-0.89
2023-03-06T02:37:53.285Z,-0.86
2023-03-06T02:40:23.105Z,-0.86
2023-03-06T02:42:55.424Z,-0.90
2023-03-06T02:45:35.886Z,-0.91
2023-03-06T02:48:03.364Z,-0.94
2023-03-06T02:50:31.045Z,-0.95
2023-03-06T02:52:58.233Z,-1.01
2023-03-06T02:55:25.020Z,-1.08
2023-03-06T02:57:51.694Z,-0.96
2023-03-06T03:00:19.250Z,-0.91
2023-03-06T03:02:46.017Z,-1.00
2023-03-06T03:05:12.615Z,-0.93
2023-03-06T03:07:39.146Z,-0.95
2023-03-06T03:10:06.235Z,-0.99
2023-03-06T03:12:33.479Z,-1.03
2023-03-06T03:15:00.013Z,-0.97
2023-03-06T03:17:26.686Z,-0.98
2023-03-06T03:19:53.416Z,-0.91
2023-03-06T03:22:20.490Z,-0.88
2023-03-06T03:24:47.672Z,-0.93
2023-03-06T03:27:14.547Z,-0.90
2023-03-06T03:29:41.408Z,-0.90
2023-03-06T03:32:08.198Z,-0.90
2023-03-06T03:34:34.834Z,-0.92
2023-03-06T03:37:01.587Z,-0.90
2023-03-06T03:39:28.208Z,-0.83
2023-03-06T03:41:54.880Z,-0.78
2023-03-06T03:44:21.401Z,-0.94
2023-03-06T03:46:48.036Z,-0.96
2023-03-06T03:49:15.272Z,-0.93
2023-03-06T03:51:41.827Z,-0.98
2023-03-06T03:54:08.458Z,-0.93
2023-03-06T03:56:35.179Z,-0.83
2023-03-06T03:59:01.938Z,-0.88
2023-03-06T04:01:28.489Z,-0.89
2023-03-06T04:03:55.107Z,-0.93
2023-03-06T04:06:21.673Z,-0.87
2023-03-06T04:08:48.260Z,-0.87
2023-03-06T04:11:15.183Z,-0.91
2023-03-06T04:13:41.750Z,-1.10
2023-03-06T04:16:08.488Z,-1.17
2023-03-06T04:18:35.249Z,-1.12
2023-03-06T04:21:01.851Z,-1.14
2023-03-06T04:23:28.790Z,-1.23
2023-03-06T04:25:55.504Z,-1.22
2023-03-06T04:28:22.083Z,-1.20
2023-03-06T04:30:48.596Z,-1.22
2023-03-06T04:33:16.492Z,-1.26
2023-03-06T04:35:43.130Z,-1.26
2023-03-06T04:38:09.973Z,-1.23
2023-03-06T04:40:36.977Z,-1.25
2023-03-06T04:43:04.175Z,-1.27
2023-03-06T04:45:32.339Z,-1.11
2023-03-06T04:47:59.558Z,-1.18
2023-03-06T04:50:28.158Z,-1.19
2023-03-06T04:52:54.743Z,-1.36
2023-03-06T04:55:21.416Z,-1.36
2023-03-06T04:57:48.381Z,-1.32
2023-03-06T05:00:19.277Z,-1.33
2023-03-06T05:02:46.304Z,-1.35
2023-03-06T05:05:14.349Z,-1.29
2023-03-06T05:07:42.367Z,-1.30
2023-03-06T05:10:12.725Z,-1.28
2023-03-06T05:12:39.578Z,-1.23
2023-03-06T05:15:08.203Z,-1.15
2023-03-06T05:17:35.039Z,-1.09
2023-03-06T05:20:01.627Z,-1.09
2023-03-06T05:22:28.238Z,-1.15
2023-03-06T05:24:54.838Z,-1.28
2023-03-06T05:27:21.402Z,-1.27
2023-03-06T05:29:48.005Z,-1.33
2023-03-06T05:32:16.189Z,-1.28
2023-03-06T05:34:43.024Z,-1.27
2023-03-06T05:37:09.666Z,-1.14
2023-03-06T05:39:36.214Z,-1.09
2023-03-06T05:42:03.108Z,-1.06
2023-03-06T05:44:33.858Z,-1.15
2023-03-06T05:47:00.466Z,-1.14
2023-03-06T05:49:31.479Z,-1.12
2023-03-06T05:51:58.165Z,-1.16
2023-03-06T05:54:26.214Z,-1.18
2023-03-06T05:56:52.773Z,-1.17
2023-03-06T05:59:19.355Z,-1.14
2023-03-06T06:01:45.996Z,-0.94
2023-03-06T06:04:12.534Z,-0.95
2023-03-06T06:06:39.076Z,-1.05
2023-03-06T06:09:05.631Z,-1.15
2023-03-06T06:11:32.184Z,-1.19
2023-03-06T06:13:58.746Z,-1.21
2023-03-06T06:16:25.298Z,-1.18
2023-03-06T06:18:51.833Z,-1.17
2023-03-06T06:21:18.364Z,-0.98
2023-03-06T06:23:44.992Z,-0.91
2023-03-06T06:26:11.864Z,-0.91
2023-03-06T06:28:38.398Z,-0.90
2023-03-06T06:31:10.726Z,-0.86
2023-03-06T06:33:37.538Z,-0.82
2023-03-06T06:36:04.418Z,-0.83
2023-03-06T06:38:30.968Z,-0.93
2023-03-06T06:41:30.606Z,-0.96
2023-03-06T06:43:44.047Z,-0.86
2023-03-06T06:46:44.613Z,-0.76
2023-03-06T06:48:57.069Z,-0.77
2023-03-06T06:51:23.717Z,-0.75
2023-03-06T06:53:53.311Z,-0.67
2023-03-06T06:56:19.833Z,-0.63
2023-03-06T06:58:46.410Z,-0.57
2023-03-06T07:01:13.690Z,-0.55
2023-03-06T07:03:40.933Z,-0.56
2023-03-06T07:06:08.269Z,-0.48
2023-03-06T07:08:35.208Z,-0.34
2023-03-06T07:11:07.852Z,-0.17
2023-03-06T07:13:35.167Z,-0.21
2023-03-06T07:16:02.007Z,-0.25
2023-03-06T07:18:28.632Z,-0.20
2023-03-06T07:20:55.910Z,-0.14
2023-03-06T07:23:23.345Z,-0.10
2023-03-06T07:25:50.661Z,0.03
2023-03-06T07:28:18.654Z,-0.07
2023-03-06T07:31:03.394Z,-0.03
2023-03-06T07:36:19.441Z,-0.21
2023-03-06T07:38:46.005Z,-0.03
2023-03-06T07:41:14.500Z,0.09
2023-03-06T07:43:41.848Z,0.06
2023-03-06T07:46:09.191Z,0.04
2023-03-06T07:48:36.791Z,0.17
2023-03-06T07:51:07.177Z,0.23
2023-03-06T07:53:34.496Z,0.22
2023-03-06T07:56:01.434Z,0.37
2023-03-06T07:58:27.991Z,0.47
2023-03-06T08:00:54.830Z,0.54
2023-03-06T08:03:21.385Z,0.61
2023-03-06T08:05:47.935Z,0.87
2023-03-06T08:08:14.677Z,0.97
2023-03-06T08:10:41.275Z,0.84
2023-03-06T08:13:07.838Z,0.95
2023-03-06T08:15:34.363Z,1.09
2023-03-06T08:18:00.884Z,1.19
2023-03-06T08:20:27.550Z,1.18
2023-03-06T08:22:54.124Z,1.19
2023-03-06T08:25:20.661Z,1.33
2023-03-06T08:27:47.467Z,1.30
2023-03-06T08:30:14.832Z,1.35
2023-03-06T08:32:41.494Z,1.46
2023-03-06T08:35:08.506Z,1.59
2023-03-06T08:37:35.149Z,1.72
2023-03-06T08:40:04.570Z,1.78
2023-03-06T08:42:32.262Z,1.63
2023-03-06T08:44:58.886Z,1.63
2023-03-06T08:47:25.748Z,1.88
2023-03-06T08:49:52.469Z,2.01
2023-03-06T08:52:19.914Z,1.71
2023-03-06T08:54:46.632Z,1.37
2023-03-06T08:57:13.172Z,1.21
2023-03-06T08:59:39.752Z,1.13
2023-03-06T09:02:07.681Z,1.16
2023-03-06T09:04:34.570Z,1.19
2023-03-06T09:07:01.516Z,1.13
2023-03-06T09:09:28.076Z,1.16
2023-03-06T09:11:55.072Z,1.23
2023-03-06T09:14:22.032Z,1.15
2023-03-06T09:16:48.639Z,1.21
2023-03-06T09:19:15.228Z,1.28
2023-03-06T09:21:42.143Z,1.30
2023-03-06T09:24:08.960Z,1.36
2023-03-06T09:26:45.590Z,1.42
2023-03-06T09:29:13.771Z,1.62
2023-03-06T09:31:40.502Z,1.60
2023-03-06T09:34:07.026Z,1.55
2023-03-06T09:36:45.674Z,1.43
2023-03-06T09:39:20.135Z,1.40
2023-03-06T09:41:49.632Z,1.46
2023-03-06T09:44:21.407Z,1.44
2023-03-06T09:47:03.551Z,1.58
2023-03-06T09:49:48.413Z,1.68
2023-03-06T09:52:30.132Z,1.69
2023-03-06T09:55:14.956Z,1.76
2023-03-06T09:57:52.362Z,1.95
2023-03-06T10:00:50.781Z,2.01
2023-03-06T10:03:33.053Z,2.07
2023-03-06T10:06:15.546Z,2.15
2023-03-06T10:09:00.809Z,2.14
2023-03-06T10:11:47.217Z,2.11
2023-03-06T10:14:21.498Z,2.15
2023-03-06T10:16:48.111Z,2.23
2023-03-06T10:19:20.325Z,2.27
2023-03-06T10:21:46.854Z,2.28
2023-03-06T10:24:19.405Z,2.33
2023-03-06T10:26:55.078Z,2.60
2023-03-06T10:29:24.326Z,2.67
2023-03-06T10:32:01.318Z,2.82
2023-03-06T10:34:36.355Z,2.86
2023-03-06T10:37:17.700Z,3.01
2023-03-06T10:39:44.219Z,3.22
2023-03-06T10:42:10.844Z,3.16
2023-03-06T10:44:37.497Z,3.38
2023-03-06T10:47:35.246Z,3.32
2023-03-06T10:50:08.038Z,3.34
2023-03-06T10:52:36.074Z,3.45
2023-03-06T10:55:26.933Z,3.61
2023-03-06T10:57:53.783Z,3.60
2023-03-06T11:00:32.954Z,3.79
2023-03-06T11:03:24.585Z,3.88
2023-03-06T11:06:35.087Z,3.94
2023-03-06T11:09:20.659Z,4.17
2023-03-06T11:11:47.338Z,3.99
2023-03-06T11:14:17.687Z,4.03
2023-03-06T11:16:53.567Z,3.89
2023-03-06T11:19:28.020Z,3.72
2023-03-06T11:22:10.903Z,3.71
2023-03-06T11:24:43.554Z,3.75
2023-03-06T11:27:34.984Z,3.37
2023-03-06T11:30:15.259Z,3.05
2023-03-06T11:32:57.568Z,3.14
2023-03-06T11:35:30.888Z,3.11
2023-03-06T11:38:04.297Z,3.21
2023-03-06T11:40:45.541Z,3.12
2023-03-06T11:43:49.830Z,3.38
2023-03-06T11:46:24.823Z,3.36
2023-03-06T11:48:58.219Z,3.51
2023-03-06T11:51:29.156Z,3.31
2023-03-06T11:53:59.942Z,3.34
2023-03-06T11:56:35.731Z,3.27
2023-03-06T11:59:26.083Z,3.47
2023-03-06T12:02:04.231Z,3.45
2023-03-06T12:04:39.927Z,3.36
2023-03-06T12:07:30.548Z,3.48
2023-03-06T12:10:10.252Z,3.59
2023-03-06T12:12:58.657Z,3.61
2023-03-06T12:15:36.954Z,3.59
2023-03-06T12:18:22.232Z,3.65
2023-03-06T12:21:04.060Z,3.10
2023-03-06T12:23:42.961Z,3.09
2023-03-06T12:26:21.952Z,3.22
2023-03-06T12:29:02.701Z,3.26
2023-03-06T12:31:43.834Z,3.36
2023-03-06T12:34:28.571Z,3.64
2023-03-06T12:37:20.914Z,3.65
2023-03-06T12:40:10.015Z,3.56
2023-03-06T12:43:18.712Z,3.23
2023-03-06T12:45:46.862Z,2.98
2023-03-06T12:48:21.191Z,2.79
2023-03-06T12:50:48.956Z,2.78
2023-03-06T12:53:30.573Z,2.91
2023-03-06T12:55:58.886Z,3.12
2023-03-06T12:58:28.361Z,3.24
2023-03-06T13:01:20.118Z,2.97
2023-03-06T13:04:20.232Z,2.49
2023-03-06T13:07:01.981Z,2.69
2023-03-06T13:09:38.871Z,2.69
2023-03-06T13:12:14.632Z,2.91
2023-03-06T13:14:48.698Z,2.98
2023-03-06T13:17:20.576Z,2.98
2023-03-06T13:19:48.225Z,3.21
2023-03-06T13:22:35.059Z,3.05
2023-03-06T13:25:20.037Z,3.24
2023-03-06T13:27:53.117Z,3.22
2023-03-06T13:30:22.748Z,3.25
2023-03-06T13:32:52.800Z,3.12
2023-03-06T13:35:39.564Z,3.17
2023-03-06T13:38:34.990Z,3.20
2023-03-06T13:41:30.703Z,3.47
2023-03-06T13:43:59.662Z,3.46
2023-03-06T13:46:30.384Z,3.48
2023-03-06T13:49:09.317Z,3.34
2023-03-06T13:51:42.114Z,3.54
2023-03-06T13:54:43.932Z,3.64
2023-03-06T13:57:10.538Z,3.74
2023-03-06T14:00:28.050Z,3.61
2023-03-06T14:03:05.226Z,3.70
2023-03-06T14:05:46.680Z,3.56
2023-03-06T14:08:22.239Z,3.48
2023-03-06T14:11:00.679Z,3.56
2023-03-06T14:13:41.813Z,3.56
2023-03-06T14:16:20.118Z,3.63
2023-03-06T14:18:49.375Z,3.62
2023-03-06T14:21:25.937Z,3.73
2023-03-06T14:24:00.969Z,3.73
2023-03-06T14:26:31.866Z,3.75
2023-03-06T14:29:00.563Z,3.71
2023-03-06T14:31:42.486Z,3.65
2023-03-06T14:34:23.997Z,3.29
2023-03-06T14:36:56.222Z,3.30
2023-03-06T14:39:37.135Z,3.17
2023-03-06T14:42:09.086Z,3.09
2023-03-06T14:44:35.693Z,3.21
2023-03-06T14:47:23.291Z,3.30
2023-03-06T14:50:24.835Z,3.22
2023-03-06T14:52:58.109Z,3.11
2023-03-06T14:55:27.223Z,3.08
2023-03-06T14:58:12.534Z,3.03
2023-03-06T15:00:46.222Z,2.87
2023-03-06T15:03:16.491Z,2.58
2023-03-06T15:05:45.727Z,2.47
2023-03-06T15:08:18.340Z,2.39
2023-03-06T15:10:59.616Z,2.24
2023-03-06T15:13:28.832Z,2.14
2023-03-06T15:16:07.762Z,2.18
2023-03-06T15:18:36.184Z,2.21
2023-03-06T15:21:08.515Z,2.23
2023-03-06T15:26:22.961Z,2.49
2023-03-06T15:29:10.362Z,2.65
2023-03-06T15:31:39.785Z,2.43
2023-03-06T15:34:06.324Z,2.36
2023-03-06T15:36:35.084Z,2.15
2023-03-06T15:39:01.941Z,2.15
2023-03-06T15:41:36.332Z,2.14
2023-03-06T15:44:14.582Z,2.18
2023-03-06T15:46:41.824Z,2.15
2023-03-06T15:49:16.640Z,2.08
2023-03-06T15:51:43.800Z,1.96
2023-03-06T15:54:12.539Z,1.83
2023-03-06T15:56:42.932Z,1.73
2023-03-06T15:59:18.243Z,1.55
2023-03-06T16:01:45.546Z,1.46
2023-03-06T16:04:12.177Z,1.37
2023-03-06T16:06:38.868Z,1.31
2023-03-06T16:09:05.948Z,1.23
2023-03-06T16:11:43.228Z,1.07
2023-03-06T16:14:21.374Z,0.93
2023-03-06T16:16:49.249Z,0.86
2023-03-06T16:19:29.266Z,0.79
2023-03-06T16:21:56.749Z,0.74
2023-03-06T16:24:23.415Z,0.72
2023-03-06T16:26:51.932Z,0.66
2023-03-06T16:29:19.621Z,0.60
2023-03-06T16:31:46.503Z,0.52
2023-03-06T16:34:13.622Z,0.48
2023-03-06T16:36:40.709Z,0.42
2023-03-06T16:39:13.506Z,0.35
2023-03-06T16:41:40.043Z,0.27
2023-03-06T16:44:07.838Z,0.21
2023-03-06T16:46:39.193Z,0.18
2023-03-06T16:49:05.997Z,0.16
2023-03-06T16:51:33.484Z,0.12
2023-03-06T16:54:00.168Z,0.09
2023-03-06T16:56:29.944Z,0.13
2023-03-06T16:58:56.482Z,0.13
2023-03-06T17:01:23.298Z,0.08
2023-03-06T17:03:49.933Z,0.03
2023-03-06T17:06:19.125Z,0.00
2023-03-06T17:08:47.074Z,-0.02
2023-03-06T17:11:14.212Z,-0.09
2023-03-06T17:13:41.359Z,-0.12
2023-03-06T17:16:11.244Z,-0.13
2023-03-06T17:18:37.926Z,-0.20
2023-03-06T17:21:04.760Z,-0.24
2023-03-06T17:23:31.440Z,-0.25
2023-03-06T17:26:10.359Z,-0.24
2023-03-06T17:28:37.999Z,-0.20
2023-03-06T17:31:30.863Z,-0.21
2023-03-06T17:34:00.533Z,-0.31
2023-03-06T17:36:29.970Z,-0.36
2023-03-06T17:38:58.368Z,-0.40
2023-03-06T17:41:25.581Z,-0.48
2023-03-06T17:43:54.924Z,-0.52
2023-03-06T17:46:21.760Z,-0.55
2023-03-06T17:48:48.367Z,-0.55
2023-03-06T17:51:15.047Z,-0.56
2023-03-06T17:53:41.839Z,-0.63
2023-03-06T17:56:11.774Z,-0.73
2023-03-06T17:58:38.440Z,-0.79
2023-03-06T18:01:16.667Z,-0.78
2023-03-06T18:03:48.695Z,-0.94
2023-03-06T18:06:16.480Z,-1.03
2023-03-06T18:08:43.123Z,-1.15
2023-03-06T18:11:12.215Z,-1.31
2023-03-06T18:13:41.998Z,-1.37
2023-03-06T18:16:11.578Z,-1.35
2023-03-06T18:18:38.577Z,-1.55
2023-03-06T18:21:06.726Z,-1.54
2023-03-06T18:23:33.768Z,-1.57
2023-03-06T18:26:14.305Z,-1.74
2023-03-06T18:28:44.422Z,-1.80
2023-03-06T18:31:14.821Z,-1.87
2023-03-06T18:33:41.522Z,-1.91
2023-03-06T18:36:08.282Z,-1.97
2023-03-06T18:38:35.121Z,-2.05
2023-03-06T18:41:01.648Z,-2.12
2023-03-06T18:43:28.187Z,-2.10
2023-03-06T18:45:58.374Z,-2.10
2023-03-06T18:48:24.989Z,-2.08
2023-03-06T18:50:51.528Z,-2.17
2023-03-06T18:53:18.677Z,-2.18
2023-03-06T18:55:54.146Z,-2.18
2023-03-06T18:58:21.824Z,-2.15
2023-03-06T19:00:49.439Z,-2.15
2023-03-06T19:03:16.513Z,-2.15
2023-03-06T19:05:45.777Z,-2.14
2023-03-06T19:08:12.371Z,-2.22
2023-03-06T19:10:41.551Z,-2.23
2023-03-06T19:13:10.081Z,-2.13
2023-03-06T19:15:45.678Z,-2.12
2023-03-06T19:18:15.743Z,-2.11
2023-03-06T19:20:43.044Z,-2.11
2023-03-06T19:23:09.938Z,-2.09
2023-03-06T19:25:36.787Z,-2.14
2023-03-06T19:28:03.796Z,-2.14
2023-03-06T19:30:30.350Z,-2.05
2023-03-06T19:32:57.104Z,-2.05
2023-03-06T19:35:25.011Z,-1.95
2023-03-06T19:37:52.344Z,-1.92
2023-03-06T19:40:19.556Z,-1.84
2023-03-06T19:42:46.529Z,-1.77
2023-03-06T19:45:13.172Z,-1.86
2023-03-06T19:47:39.770Z,-2.07
2023-03-06T19:50:06.842Z,-2.11
2023-03-06T19:52:36.563Z,-1.93
2023-03-06T19:55:03.350Z,-1.75
2023-03-06T19:57:29.942Z,-1.82
2023-03-06T19:59:58.496Z,-2.02
2023-03-06T20:02:27.210Z,-2.12
2023-03-06T20:04:54.860Z,-2.20
2023-03-06T20:07:21.626Z,-2.23
2023-03-06T20:09:48.327Z,-2.25
2023-03-06T20:12:15.714Z,-2.24
2023-03-06T20:14:43.132Z,-2.30
2023-03-06T20:17:09.784Z,-2.21
2023-03-06T20:19:36.805Z,-2.06
2023-03-06T20:22:03.484Z,-1.89
2023-03-06T20:24:30.053Z,-2.02
2023-03-06T20:26:58.427Z,-2.09
2023-03-06T20:29:28.119Z,-2.04
2023-03-06T20:31:56.226Z,-2.08
2023-03-06T20:34:23.653Z,-2.11
2023-03-06T20:36:50.939Z,-2.08
2023-03-06T20:39:19.281Z,-2.09
2023-03-06T20:41:46.809Z,-2.03
2023-03-06T20:44:17.187Z,-1.96
2023-03-06T20:46:44.475Z,-1.96
2023-03-06T20:49:12.718Z,-2.05
2023-03-06T20:51:40.426Z,-2.16
2023-03-06T20:54:08.647Z,-2.18
2023-03-06T20:56:37.081Z,-2.32
2023-03-06T20:59:03.658Z,-2.58
2023-03-06T21:01:33.666Z,-2.73
2023-03-06T21:04:01.520Z,-2.76
2023-03-06T21:06:29.182Z,-2.73
2023-03-06T21:08:56.786Z,-2.66
2023-03-06T21:11:23.577Z,-2.59
2023-03-06T21:13:50.190Z,-2.70
2023-03-06T21:16:19.155Z,-2.71
2023-03-06T21:18:46.071Z,-2.63
2023-03-06T21:21:15.222Z,-2.58
2023-03-06T21:23:42.522Z,-2.51
2023-03-06T21:26:13.188Z,-2.59
2023-03-06T21:28:40.045Z,-2.67
2023-03-06T21:31:09.203Z,-2.70
2023-03-06T21:33:36.459Z,-2.68
2023-03-06T21:36:03.631Z,-2.67
2023-03-06T21:38:30.432Z,-2.61
2023-03-06T21:40:57.008Z,-2.56
2023-03-06T21:43:23.574Z,-2.57
2023-03-06T21:45:52.725Z,-2.58
2023-03-06T21:48:19.358Z,-2.60
2023-03-06T21:50:45.927Z,-2.52
2023-03-06T21:53:12.508Z,-2.61
2023-03-06T21:55:40.796Z,-2.61
2023-03-06T21:58:08.617Z,-2.40
2023-03-06T22:00:36.487Z,-2.02
2023-03-06T22:03:04.732Z,-1.72
2023-03-06T22:05:34.189Z,-1.53
2023-03-06T22:08:00.888Z,-1.41
2023-03-06T22:10:27.480Z,-1.33
2023-03-06T22:12:54.027Z,-1.32
2023-03-06T22:15:21.899Z,-1.21
2023-03-06T22:17:48.680Z,-1.12
2023-03-06T22:20:15.497Z,-1.06
2023-03-06T22:22:42.344Z,-1.09
2023-03-06T22:25:09.287Z,-1.06
2023-03-06T22:27:35.844Z,-1.04
2023-03-06T22:30:02.534Z,-1.04
2023-03-06T22:32:29.122Z,-1.04
2023-03-06T22:34:55.715Z,-1.03
2023-03-06T22:37:22.279Z,-1.01
2023-03-06T22:39:48.837Z,-0.98
2023-03-06T22:42:15.422Z,-1.00
2023-03-06T22:44:42.003Z,-1.01
2023-03-06T22:47:08.504Z,-1.02
2023-03-06T22:49:35.015Z,-0.98
2023-03-06T22:52:01.555Z,-0.94
2023-03-06T22:54:30.204Z,-0.92
2023-03-06T22:56:56.723Z,-0.93
2023-03-06T22:59:23.245Z,-0.97
2023-03-06T23:01:49.780Z,-0.94
2023-03-06T23:04:16.438Z,-0.94
2023-03-06T23:06:43.511Z,-0.94
2023-03-06T23:09:20.575Z,-0.93
2023-03-06T23:11:48.191Z,-0.93
2023-03-06T23:14:16.597Z,-0.92
2023-03-06T23:16:43.865Z,-0.89
2023-03-06T23:19:10.429Z,-0.90
2023-03-06T23:21:37.066Z,-0.88
2023-03-06T23:24:04.409Z,-0.87
2023-03-06T23:26:31.962Z,-0.85
2023-03-06T23:28:58.558Z,-0.82
2023-03-06T23:31:28.862Z,-0.82
2023-03-06T23:34:02.530Z,-0.84
2023-03-06T23:36:30.306Z,-0.85
2023-03-06T23:38:57.616Z,-0.86
2023-03-06T23:41:24.589Z,-0.88
2023-03-06T23:43:53.487Z,-0.89
2023-03-06T23:46:21.312Z,-0.88
2023-03-06T23:48:47.890Z,-0.88
2023-03-06T23:51:19.828Z,-0.88
2023-03-06T23:53:47.597Z,-0.90
2023-03-06T23:56:14.677Z,-0.82
2023-03-06T23:58:41.313Z,-0.76
